Time;durP1;ratioP1;P1;durP2;ratioP2;P2;SDS_P1;SDS_P2;PMS_P1;PMS_P2;Temp;Humidity;BMP_temperature;BMP_pressure;BME280_temperature;BME280_humidity;BME280_pressure;Samples;Min_cycle;Max_cycle;Signal;HPM_P1;HPM_P2
2023/03/04 00:00:36;;;;;;;4.25;2.03;;;;;;;12.55;50.53;96176.78;4997041;28;20157;-27
2023/03/04 00:03:02;;;;;;;3.80;2.58;;;;;;;12.67;50.25;96178.66;4996650;28;20534;-27
2023/03/04 00:05:27;;;;;;;3.53;2.20;;;;;;;12.64;50.49;96176.06;4996509;28;20033;-27
2023/03/04 00:07:53;;;;;;;3.15;1.95;;;;;;;12.49;50.36;96176.56;4996283;28;20064;-27
2023/03/04 00:10:18;;;;;;;2.60;1.73;;;;;;;12.52;50.44;96172.97;5003021;28;20022;-27
2023/03/04 00:12:44;;;;;;;3.15;1.50;;;;;;;12.65;50.14;96175.63;5002923;28;20026;-26
2023/03/04 00:15:09;;;;;;;3.53;1.58;;;;;;;12.46;51.12;96174.78;4998896;28;20010;-26
2023/03/04 00:17:35;;;;;;;3.42;1.60;;;;;;;12.49;51.18;96179.28;5001453;28;20048;-26
2023/03/04 00:20:00;;;;;;;3.95;1.70;;;;;;;12.59;49.89;96167.28;4997364;28;20036;-26
2023/03/04 00:22:25;;;;;;;4.15;1.77;;;;;;;12.55;50.58;96179.50;4996182;28;20081;-26
2023/03/04 00:24:51;;;;;;;2.78;1.77;;;;;;;12.63;50.70;96177.25;4996379;28;20073;-26
2023/03/04 00:27:16;;;;;;;4.53;1.50;;;;;;;12.50;50.04;96185.50;4997107;28;20026;-27
2023/03/04 00:29:42;;;;;;;3.78;1.58;;;;;;;12.55;50.45;96174.81;5001006;28;20058;-26
2023/03/04 00:32:07;;;;;;;4.40;1.88;;;;;;;12.52;50.34;96178.41;5005306;28;20018;-26
2023/03/04 00:34:33;;;;;;;2.63;1.52;;;;;;;12.38;51.47;96178.94;4998795;28;20025;-26
2023/03/04 00:37:00;;;;;;;6.07;1.80;;;;;;;12.56;50.14;96183.72;5000160;28;20414;-26
2023/03/04 00:39:27;;;;;;;3.65;1.90;;;;;;;12.53;50.89;96182.66;5002646;28;20027;-26
2023/03/04 00:41:52;;;;;;;5.05;1.77;;;;;;;12.62;50.65;96173.03;4995788;28;20033;-26
2023/03/04 00:44:18;;;;;;;4.97;2.17;;;;;;;12.71;50.34;96170.38;4996326;28;20018;-26
2023/03/04 00:46:43;;;;;;;3.15;1.98;;;;;;;12.69;50.32;96176.25;4996341;28;20138;-26
2023/03/04 00:49:09;;;;;;;4.32;2.05;;;;;;;12.48;50.70;96182.47;4996002;28;20022;-26
2023/03/04 00:51:34;;;;;;;4.43;1.85;;;;;;;12.58;50.04;96173.16;4996542;28;20025;-27
2023/03/04 00:53:59;;;;;;;4.97;2.38;;;;;;;12.49;50.60;96179.28;4998796;28;20025;-26
2023/03/04 00:56:25;;;;;;;6.07;2.55;;;;;;;12.64;49.74;96167.91;4998779;28;20374;-26
2023/03/04 00:58:50;;;;;;;4.47;2.15;;;;;;;12.63;50.02;96171.81;5002835;28;20083;-27
2023/03/04 01:01:16;;;;;;;4.60;2.38;;;;;;;12.44;50.43;96173.69;5002213;28;20048;-26
2023/03/04 01:03:41;;;;;;;5.78;2.30;;;;;;;12.49;50.36;96179.28;4996204;28;20030;-27
2023/03/04 01:06:07;;;;;;;3.40;2.17;;;;;;;12.59;50.18;96172.72;4997719;28;20041;-26
2023/03/04 01:08:33;;;;;;;4.72;2.00;;;;;;;12.65;49.68;96166.69;4999402;28;20498;-26
2023/03/04 01:10:58;;;;;;;2.97;1.77;;;;;;;12.47;50.73;96165.41;4995954;28;20125;-26
2023/03/04 01:13:24;;;;;;;5.05;2.20;;;;;;;12.51;50.45;96166.00;4995568;28;20019;-26
2023/03/04 01:15:49;;;;;;;5.15;2.20;;;;;;;12.44;50.41;96166.28;4995729;28;20069;-27
2023/03/04 01:18:15;;;;;;;4.25;2.13;;;;;;;12.42;50.25;96168.69;4995736;28;20068;-27
2023/03/04 01:20:40;;;;;;;2.97;1.95;;;;;;;12.54;50.18;96167.84;5002016;28;20031;-27
2023/03/04 01:23:05;;;;;;;3.67;2.28;;;;;;;12.39;50.92;96166.84;5002442;28;20045;-27
2023/03/04 01:25:31;;;;;;;7.93;2.95;;;;;;;12.61;50.54;96163.38;4998605;28;20482;-26
2023/03/04 01:27:56;;;;;;;5.82;2.25;;;;;;;12.53;50.74;96163.63;4996993;28;20049;-27
2023/03/04 01:30:22;;;;;;;9.55;3.05;;;;;;;12.57;50.38;96158.03;5003259;28;20025;-26
2023/03/04 01:32:47;;;;;;;6.15;2.22;;;;;;;12.42;50.88;96168.69;4995311;28;20117;-26
2023/03/04 01:35:13;;;;;;;5.07;2.72;;;;;;;12.37;50.04;96166.53;4995979;28;20026;-26
2023/03/04 01:37:38;;;;;;;5.93;2.40;;;;;;;12.48;50.27;96164.19;4999069;28;20028;-26
2023/03/04 01:40:04;;;;;;;7.82;2.65;;;;;;;12.38;50.74;96151.72;4999256;28;20034;-26
2023/03/04 01:42:33;;;;;;;4.53;2.42;;;;;;;12.27;51.00;96158.75;5002193;28;20076;-26
2023/03/04 01:44:59;;;;;;;8.77;3.00;;;;;;;12.49;50.85;96145.91;4999571;28;20026;-27
2023/03/04 01:47:28;;;;;;;6.07;2.70;;;;;;;12.41;51.36;96142.69;4997090;28;20042;-27
2023/03/04 01:49:56;;;;;;;4.93;2.85;;;;;;;12.58;50.75;96149.44;4997935;28;20022;-27
2023/03/04 01:52:22;;;;;;;7.05;2.95;;;;;;;12.35;51.13;96141.75;5005426;28;20026;-26
2023/03/04 01:54:48;;;;;;;5.93;3.80;;;;;;;12.47;51.34;96140.94;5013446;28;20022;-26
2023/03/04 01:57:25;;;;;;;7.57;3.25;;;;;;;12.65;50.50;96132.09;4999029;28;20029;-27
2023/03/04 02:00:30;;;;;;;4.65;2.88;;;;;;;12.66;50.60;96130.13;4999407;28;20104;-27
2023/03/04 02:03:02;;;;;;;5.72;3.05;;;;;;;12.56;49.96;96130.09;4999183;28;20057;-26
2023/03/04 02:05:29;;;;;;;5.35;3.00;;;;;;;12.48;51.11;96133.53;4997642;28;20022;-26
2023/03/04 02:07:58;;;;;;;5.68;2.80;;;;;;;12.63;50.55;96125.56;5013039;28;20026;-26
2023/03/04 02:10:24;;;;;;;5.47;2.53;;;;;;;12.51;50.04;96127.94;5003017;28;20045;-26
2023/03/04 02:12:50;;;;;;;7.78;3.05;;;;;;;12.40;51.06;96124.84;5000937;28;20030;-27
2023/03/04 02:15:16;;;;;;;8.38;2.97;;;;;;;12.39;50.82;96117.91;5004469;28;20113;-26
2023/03/04 02:17:42;;;;;;;5.60;2.92;;;;;;;12.49;50.68;96119.47;5005366;28;20113;-26
2023/03/04 02:20:47;;;;;;;5.60;2.47;;;;;;;12.27;50.92;96128.84;4999534;28;20149;-27
2023/03/04 02:23:32;;;;;;;5.97;2.17;;;;;;;12.20;51.37;96124.44;4997603;28;20080;-26
2023/03/04 02:26:20;;;;;;;9.18;2.90;;;;;;;12.30;51.41;96117.84;4998504;28;20049;-27
2023/03/04 02:28:48;;;;;;;5.20;2.65;;;;;;;12.43;50.70;96113.09;4998574;28;20033;-27
2023/03/04 02:31:36;;;;;;;6.32;2.83;;;;;;;12.37;50.73;96122.25;5006329;28;20023;-26
2023/03/04 02:34:11;;;;;;;7.40;3.50;;;;;;;12.34;51.32;96112.28;5004995;28;20385;-26
2023/03/04 02:36:38;;;;;;;6.93;2.80;;;;;;;12.21;50.59;96115.09;5004820;28;20104;-26
2023/03/04 02:39:10;;;;;;;7.05;2.42;;;;;;;12.15;51.21;96111.41;5003841;28;20026;-27
2023/03/04 02:41:36;;;;;;;5.80;3.15;;;;;;;12.50;50.65;96114.78;5005632;28;20490;-26
2023/03/04 02:44:14;;;;;;;8.15;2.72;;;;;;;12.36;50.86;96107.94;4998200;28;20050;-26
2023/03/04 02:46:39;;;;;;;6.85;2.50;;;;;;;12.44;50.90;96106.44;4998619;28;20045;-26
2023/03/04 02:49:04;;;;;;;7.50;2.95;;;;;;;12.39;51.28;96109.75;5005322;28;20463;-26
2023/03/04 02:51:30;;;;;;;7.72;3.22;;;;;;;12.32;50.73;96115.47;4998848;28;20467;-26
2023/03/04 02:53:55;;;;;;;7.05;3.35;;;;;;;12.30;51.07;96109.69;4998199;28;20371;-26
2023/03/04 02:56:21;;;;;;;11.23;3.80;;;;;;;12.41;50.92;96106.56;4998170;28;20385;-26
2023/03/04 02:58:46;;;;;;;9.20;3.83;;;;;;;12.39;50.87;96103.53;5005172;28;20029;-26
2023/03/04 03:01:12;;;;;;;7.38;3.65;;;;;;;12.34;50.37;96110.34;5001357;28;20044;-26
2023/03/04 03:03:37;;;;;;;11.45;3.72;;;;;;;12.37;51.01;96109.41;5000006;28;20053;-26
2023/03/04 03:06:03;;;;;;;9.68;3.78;;;;;;;12.38;50.79;96102.78;5007682;28;20052;-27
2023/03/04 03:08:28;;;;;;;8.98;3.53;;;;;;;12.34;51.19;96102.19;5002186;28;20073;-27
2023/03/04 03:10:53;;;;;;;7.60;3.03;;;;;;;12.33;51.13;96100.66;4999300;28;20382;-27
2023/03/04 03:13:19;;;;;;;10.57;3.72;;;;;;;12.30;51.84;96092.63;5002831;28;20465;-26
2023/03/04 03:15:45;;;;;;;7.13;3.30;;;;;;;12.38;51.67;96102.03;4997448;28;20030;-26
2023/03/04 03:18:10;;;;;;;6.05;3.45;;;;;;;12.34;51.49;96098.69;4998302;28;20121;-26
2023/03/04 03:20:36;;;;;;;8.02;3.67;;;;;;;12.46;50.86;96098.63;5001246;28;20033;-27
2023/03/04 03:23:02;;;;;;;7.07;3.60;;;;;;;12.29;51.51;96097.31;4999687;28;20048;-26
2023/03/04 03:25:28;;;;;;;5.63;3.03;;;;;;;12.21;51.63;96099.53;5004451;28;20026;-26
2023/03/04 03:27:53;;;;;;;7.93;3.20;;;;;;;12.39;51.43;96096.13;5003869;28;20026;-26
2023/03/04 03:30:19;;;;;;;5.20;3.67;;;;;;;12.35;51.48;96092.81;5006446;28;20112;-26
2023/03/04 03:32:44;;;;;;;7.32;3.03;;;;;;;12.45;51.10;96097.09;4997324;28;20485;-26
2023/03/04 03:35:10;;;;;;;6.72;2.80;;;;;;;12.51;51.54;96100.72;4997858;28;20063;-26
2023/03/04 03:37:35;;;;;;;4.78;3.10;;;;;;;12.27;51.71;96102.41;4997272;28;20030;-26
2023/03/04 03:40:01;;;;;;;9.38;3.25;;;;;;;12.37;51.27;96095.81;4997246;28;20126;-26
2023/03/04 03:42:27;;;;;;;5.03;2.72;;;;;;;12.42;51.24;96092.53;4997828;28;20387;-27
2023/03/04 03:44:52;;;;;;;5.47;3.22;;;;;;;12.43;51.23;96088.63;4995706;28;20026;-26
2023/03/04 03:47:17;;;;;;;8.57;3.55;;;;;;;12.43;51.06;96094.06;5003526;28;20022;-26
2023/03/04 03:49:43;;;;;;;7.75;3.30;;;;;;;12.40;51.09;96097.66;5011261;28;20026;-26
2023/03/04 03:52:08;;;;;;;8.52;3.10;;;;;;;12.50;50.95;96096.50;5000784;28;20458;-26
2023/03/04 03:54:34;;;;;;;7.97;2.88;;;;;;;12.25;51.59;96091.22;4998989;28;20018;-27
2023/03/04 03:56:59;;;;;;;10.57;3.30;;;;;;;12.22;52.00;96084.00;5003555;28;20026;-27
2023/03/04 03:59:25;;;;;;;8.88;4.13;;;;;;;12.21;51.18;96083.22;4996961;28;20030;-26
2023/03/04 04:01:50;;;;;;;6.43;3.05;;;;;;;12.27;51.58;96090.78;4997197;28;20046;-26
2023/03/04 04:04:16;;;;;;;8.13;3.47;;;;;;;12.32;51.56;96090.97;4996709;28;20026;-26
2023/03/04 04:06:41;;;;;;;8.57;3.67;;;;;;;12.34;51.41;96085.84;5004346;28;20022;-27
2023/03/04 04:09:07;;;;;;;5.82;3.53;;;;;;;12.31;51.13;96091.44;4996538;28;20026;-27
2023/03/04 04:11:32;;;;;;;5.97;3.17;;;;;;;12.43;50.80;96085.91;4995175;28;20022;-27
2023/03/04 04:13:57;;;;;;;10.18;4.15;;;;;;;12.17;51.59;96076.41;4997284;28;20499;-26
2023/03/04 04:16:23;;;;;;;6.45;3.33;;;;;;;12.25;51.72;96074.91;5002480;28;20018;-26
2023/03/04 04:18:48;;;;;;;10.95;3.05;;;;;;;12.42;51.20;96081.66;5002751;28;20035;-26
2023/03/04 04:21:14;;;;;;;6.63;3.15;;;;;;;12.26;51.95;96081.88;5003765;28;20459;-26
2023/03/04 04:23:39;;;;;;;7.38;3.33;;;;;;;12.34;51.69;96085.84;4996244;28;20030;-27
2023/03/04 04:26:05;;;;;;;8.48;3.97;;;;;;;12.18;51.75;96089.53;4996998;28;20026;-27
2023/03/04 04:28:32;;;;;;;9.25;5.35;;;;;;;12.15;51.58;96086.94;4996157;28;20030;-27
2023/03/04 04:30:58;;;;;;;8.43;4.40;;;;;;;12.27;51.25;96088.06;5003467;28;20113;-26
2023/03/04 04:33:23;;;;;;;10.60;4.45;;;;;;;12.44;50.90;96095.56;4996816;28;20113;-26
2023/03/04 04:35:50;;;;;;;9.18;4.50;;;;;;;12.24;51.42;96089.72;4996449;28;20030;-26
2023/03/04 04:38:16;;;;;;;14.02;4.45;;;;;;;12.27;51.13;96088.81;5002747;28;20018;-26
2023/03/04 04:40:41;;;;;;;6.30;4.10;;;;;;;12.27;51.10;96085.34;5002820;28;20367;-27
2023/03/04 04:43:07;;;;;;;9.27;3.40;;;;;;;12.30;51.14;96089.91;4996106;28;20098;-27
2023/03/04 04:45:33;;;;;;;8.40;3.65;;;;;;;12.35;51.37;96086.63;4996555;28;20433;-26
2023/03/04 04:47:59;;;;;;;8.15;4.07;;;;;;;12.24;51.50;96097.88;5000579;28;20021;-26
2023/03/04 04:50:24;;;;;;;10.55;3.95;;;;;;;12.24;51.19;96098.63;4998676;28;20033;-27
2023/03/04 04:52:50;;;;;;;7.97;3.38;;;;;;;12.16;51.46;96104.78;4995903;28;20482;-26
2023/03/04 04:55:16;;;;;;;6.53;3.45;;;;;;;12.13;51.32;96105.66;4995880;28;20030;-27
2023/03/04 04:57:44;;;;;;;8.10;3.33;;;;;;;12.18;51.68;96105.09;5003044;28;20652;-27
2023/03/04 05:00:10;;;;;;;7.72;4.05;;;;;;;12.40;51.29;96100.38;5001920;28;20046;-26
2023/03/04 05:02:36;;;;;;;11.15;3.55;;;;;;;12.41;51.31;96112.78;5002362;28;20029;-27
2023/03/04 05:05:03;;;;;;;7.45;3.40;;;;;;;12.42;51.16;96108.09;4997955;28;20025;-26
2023/03/04 05:07:29;;;;;;;5.10;3.42;;;;;;;12.31;51.13;96110.47;4999711;28;20031;-26
2023/03/04 05:09:54;;;;;;;9.05;3.25;;;;;;;12.15;51.68;96111.41;4996375;28;20380;-27
2023/03/04 05:12:20;;;;;;;10.63;3.20;;;;;;;12.34;51.03;96112.28;5002647;28;20026;-27
2023/03/04 05:14:45;;;;;;;6.55;3.45;;;;;;;12.34;50.84;96123.94;4995265;28;20022;-27
2023/03/04 05:17:10;;;;;;;9.90;3.40;;;;;;;12.09;51.24;96118.66;4995989;28;20033;-27
2023/03/04 05:19:36;;;;;;;7.47;3.60;;;;;;;12.03;51.37;96115.72;4995514;28;20030;-26
2023/03/04 05:22:01;;;;;;;9.25;3.60;;;;;;;12.13;51.43;96122.72;5002657;28;20108;-27
2023/03/04 05:24:27;;;;;;;8.50;3.78;;;;;;;12.21;51.12;96112.38;4998200;28;20091;-26
2023/03/04 05:26:52;;;;;;;8.05;3.92;;;;;;;12.18;51.31;96121.41;4999025;28;20028;-27
2023/03/04 05:29:18;;;;;;;6.97;3.72;;;;;;;12.10;51.19;96120.16;5002938;28;20049;-27
2023/03/04 05:31:43;;;;;;;9.07;3.65;;;;;;;12.20;51.15;96124.44;4995428;28;20037;-26
2023/03/04 05:34:09;;;;;;;11.15;3.45;;;;;;;11.98;51.79;96118.28;4995577;28;20041;-26
2023/03/04 05:36:34;;;;;;;6.22;3.30;;;;;;;12.19;51.26;96112.81;4995562;28;20030;-26
2023/03/04 05:39:00;;;;;;;9.50;3.22;;;;;;;11.97;52.03;96127.63;4995278;28;20030;-26
2023/03/04 05:41:25;;;;;;;9.88;4.10;;;;;;;12.21;51.06;96125.97;4994519;28;20085;-26
2023/03/04 05:43:51;;;;;;;8.45;3.58;;;;;;;12.10;51.76;96128.31;4998919;28;20382;-26
2023/03/04 05:46:24;;;;;;;7.55;3.78;;;;;;;12.25;51.23;96126.56;4997942;28;20030;-26
2023/03/04 05:48:50;;;;;;;8.60;4.50;;;;;;;12.08;51.80;96141.59;5002410;28;20026;-26
2023/03/04 05:51:15;;;;;;;11.95;3.60;;;;;;;12.23;50.94;96134.44;5001034;28;20546;-27
2023/03/04 05:53:41;;;;;;;6.00;3.15;;;;;;;12.26;50.84;96143.66;4995421;28;20105;-27
2023/03/04 05:56:09;;;;;;;10.55;3.20;;;;;;;12.27;51.66;96137.78;4995086;28;20015;-27
2023/03/04 05:58:34;;;;;;;10.43;3.83;;;;;;;12.12;51.68;96144.91;4995579;28;20496;-26
2023/03/04 06:00:59;;;;;;;18.10;6.50;;;;;;;12.00;51.58;96148.44;4994673;28;20042;-26
2023/03/04 06:03:25;;;;;;;10.60;5.35;;;;;;;12.08;51.53;96144.31;4995036;28;20374;-26
2023/03/04 06:05:52;;;;;;;14.10;4.93;;;;;;;12.17;51.48;96149.78;4995498;28;20046;-26
2023/03/04 06:08:18;;;;;;;9.52;3.95;;;;;;;12.31;50.84;96152.00;4995182;28;20110;-26
2023/03/04 06:10:43;;;;;;;9.77;3.75;;;;;;;12.14;51.62;96151.44;5001641;28;20101;-26
2023/03/04 06:13:10;;;;;;;7.68;3.33;;;;;;;12.29;51.29;96148.97;5008754;28;20022;-26
2023/03/04 06:15:36;;;;;;;9.68;3.55;;;;;;;12.17;51.49;96152.50;5000302;28;20363;-26
2023/03/04 06:18:02;;;;;;;9.05;3.40;;;;;;;12.31;51.11;96154.72;4995225;28;20030;-26
2023/03/04 06:20:27;;;;;;;9.00;3.42;;;;;;;12.07;51.73;96164.53;4994774;28;20488;-26
2023/03/04 06:22:53;;;;;;;10.30;3.80;;;;;;;12.16;51.75;96168.06;4994685;28;20110;-26
2023/03/04 06:25:18;;;;;;;8.30;3.67;;;;;;;12.17;51.50;96168.81;4995474;28;20072;-26
2023/03/04 06:27:44;;;;;;;8.55;3.53;;;;;;;12.13;51.73;96168.19;4994875;28;20080;-26
2023/03/04 06:30:10;;;;;;;7.82;3.08;;;;;;;12.15;51.75;96168.50;5002393;28;20022;-26
2023/03/04 06:32:35;;;;;;;5.07;3.30;;;;;;;12.03;52.23;96174.75;4994873;28;20019;-26
2023/03/04 06:35:01;;;;;;;7.97;3.25;;;;;;;12.14;52.13;96170.47;5002585;28;20037;-26
2023/03/04 06:37:26;;;;;;;7.20;3.30;;;;;;;12.24;51.64;96179.44;5000460;28;20034;-26
2023/03/04 06:39:51;;;;;;;7.18;3.58;;;;;;;12.07;52.57;96175.41;5004064;28;20027;-26
2023/03/04 06:42:18;;;;;;;8.82;3.58;;;;;;;12.23;51.72;96177.94;5005168;28;20040;-26
2023/03/04 06:44:43;;;;;;;7.07;4.35;;;;;;;12.21;51.90;96172.19;4998221;28;20031;-26
2023/03/04 06:47:09;;;;;;;13.55;3.55;;;;;;;12.22;52.42;96179.91;4998192;28;20022;-26
2023/03/04 06:49:35;;;;;;;10.20;4.95;;;;;;;12.23;51.63;96173.25;5006187;28;20022;-27
2023/03/04 06:52:00;;;;;;;7.53;4.10;;;;;;;12.03;52.19;96180.94;4996809;28;20117;-27
2023/03/04 06:54:26;;;;;;;8.23;4.03;;;;;;;12.27;52.03;96184.00;4998000;28;20031;-27
2023/03/04 06:56:51;;;;;;;8.25;4.18;;;;;;;12.27;51.70;96186.72;5007041;28;20077;-27
2023/03/04 06:59:17;;;;;;;18.08;4.75;;;;;;;12.12;52.29;96188.41;5002667;28;20026;-26
2023/03/04 07:01:42;;;;;;;8.80;4.85;;;;;;;12.04;52.70;96187.16;5004662;28;20536;-26
2023/03/04 07:04:08;;;;;;;10.70;4.15;;;;;;;12.02;52.38;96189.53;5004101;28;20031;-26
2023/03/04 07:06:33;;;;;;;7.20;4.20;;;;;;;12.17;52.55;96188.63;5003858;28;20049;-26
2023/03/04 07:08:59;;;;;;;9.27;4.85;;;;;;;12.14;52.50;96188.72;4998360;28;20032;-26
2023/03/04 07:11:25;;;;;;;10.27;5.13;;;;;;;12.37;51.58;96191.00;4997582;28;20030;-27
2023/03/04 07:13:51;;;;;;;8.90;4.78;;;;;;;12.31;51.89;96195.50;4998247;28;20030;-26
2023/03/04 07:16:20;;;;;;;12.80;4.78;;;;;;;12.20;52.40;96190.44;4997369;28;20517;-26
2023/03/04 07:18:46;;;;;;;15.02;5.72;;;;;;;12.21;52.54;96193.94;4996901;28;20026;-26
2023/03/04 07:21:12;;;;;;;10.10;5.47;;;;;;;12.47;51.57;96192.59;4997992;28;20489;-26
2023/03/04 07:23:38;;;;;;;12.32;5.38;;;;;;;12.24;52.17;96195.75;4997677;28;20105;-26
2023/03/04 07:26:04;;;;;;;13.52;5.72;;;;;;;12.38;52.55;96195.25;5004398;28;20456;-26
2023/03/04 07:28:30;;;;;;;8.38;5.13;;;;;;;12.42;52.10;96206.00;5000021;28;20377;-26
2023/03/04 07:30:55;;;;;;;10.88;5.13;;;;;;;12.51;52.14;96203.34;5001591;28;20030;-27
2023/03/04 07:33:21;;;;;;;11.38;4.55;;;;;;;12.33;52.88;96203.22;5004788;28;21428;-27
2023/03/04 07:35:46;;;;;;;12.40;5.60;;;;;;;12.37;52.58;96199.16;4997458;28;20467;-26
2023/03/04 07:38:12;;;;;;;13.82;4.70;;;;;;;12.46;52.69;96206.66;5005383;28;20022;-26
2023/03/04 07:40:37;;;;;;;10.80;4.53;;;;;;;12.27;53.18;96210.44;4997067;28;20560;-26
2023/03/04 07:43:03;;;;;;;9.25;4.78;;;;;;;12.63;52.56;96204.47;4997164;28;20091;-26
2023/03/04 07:45:29;;;;;;;10.38;4.20;;;;;;;12.54;52.18;96208.66;5004016;28;20030;-26
2023/03/04 07:47:56;;;;;;;9.13;4.03;;;;;;;12.50;52.59;96212.69;4995502;28;20109;-27
2023/03/04 07:50:22;;;;;;;7.63;4.32;;;;;;;12.40;52.82;96211.88;4996604;28;20037;-27
2023/03/04 07:52:49;;;;;;;11.70;5.60;;;;;;;12.51;52.37;96214.22;5006915;28;20474;-26
2023/03/04 07:55:16;;;;;;;17.52;6.00;;;;;;;12.45;52.82;96211.31;5007619;28;20406;-27
2023/03/04 07:57:46;;;;;;;12.85;6.45;;;;;;;12.53;52.39;96220.75;4997247;28;20105;-27
2023/03/04 08:00:14;;;;;;;16.20;7.43;;;;;;;12.34;52.97;96216.38;4996728;28;20046;-26
2023/03/04 08:02:40;;;;;;;20.48;8.93;;;;;;;12.38;52.85;96213.53;4997281;28;20046;-27
2023/03/04 08:05:06;;;;;;;16.92;8.30;;;;;;;12.57;53.04;96217.91;4995365;28;20501;-26
2023/03/04 08:07:32;;;;;;;19.08;10.60;;;;;;;12.55;52.26;96218.34;4996650;28;20459;-26
2023/03/04 08:09:57;;;;;;;18.30;7.97;;;;;;;12.71;52.91;96217.38;4997974;28;20034;-27
2023/03/04 08:12:25;;;;;;;14.75;7.50;;;;;;;12.62;52.90;96222.00;5009436;28;20015;-27
2023/03/04 08:14:51;;;;;;;16.90;7.15;;;;;;;12.55;52.64;96212.91;5003801;28;20113;-27
2023/03/04 08:17:17;;;;;;;14.57;6.75;;;;;;;12.47;52.75;96217.09;5003329;28;20149;-26
2023/03/04 08:19:43;;;;;;;16.30;6.78;;;;;;;12.64;52.84;96216.88;5002257;28;20018;-27
2023/03/04 08:22:08;;;;;;;11.57;6.20;;;;;;;12.61;53.24;96215.06;4997468;28;20512;-27
2023/03/04 08:24:34;;;;;;;11.23;5.80;;;;;;;12.49;53.59;96220.09;4996324;28;20029;-26
2023/03/04 08:26:59;;;;;;;13.63;5.85;;;;;;;12.56;53.15;96217.13;4996540;28;20101;-27
2023/03/04 08:29:25;;;;;;;10.20;6.05;;;;;;;12.67;52.46;96215.97;4999173;28;20484;-26
2023/03/04 08:31:53;;;;;;;12.43;6.15;;;;;;;12.65;52.10;96215.66;5000714;28;20027;-26
2023/03/04 08:34:20;;;;;;;14.15;6.35;;;;;;;12.80;52.35;96220.16;5005504;28;20101;-27
2023/03/04 08:36:46;;;;;;;11.68;5.85;;;;;;;12.73;52.95;96209.53;5002618;28;20022;-27
2023/03/04 08:39:14;;;;;;;13.60;5.80;;;;;;;12.79;52.37;96217.88;5001589;28;20067;-27
2023/03/04 08:41:39;;;;;;;9.85;5.55;;;;;;;12.89;52.10;96208.53;4998339;28;20025;-27
2023/03/04 08:44:07;;;;;;;7.78;4.15;;;;;;;12.84;52.37;96214.56;5000319;28;20024;-27
2023/03/04 08:46:32;;;;;;;13.35;5.50;;;;;;;12.80;52.39;96209.25;4996337;28;20097;-26
2023/03/04 08:48:58;;;;;;;10.13;4.82;;;;;;;12.99;51.88;96206.59;4995940;28;20534;-27
2023/03/04 08:51:24;;;;;;;10.27;4.85;;;;;;;12.81;52.07;96213.50;4996003;28;20451;-27
2023/03/04 08:53:50;;;;;;;9.85;4.80;;;;;;;13.16;51.07;96207.94;5003479;28;20054;-27
2023/03/04 08:56:16;;;;;;;10.50;4.28;;;;;;;13.04;52.08;96204.06;4995562;28;20034;-27
2023/03/04 08:58:41;;;;;;;8.95;4.57;;;;;;;13.04;51.70;96197.88;4996342;28;20037;-27
2023/03/04 09:01:09;;;;;;;19.13;6.20;;;;;;;13.12;51.75;96199.09;4998707;28;20493;-27
2023/03/04 09:03:35;;;;;;;10.43;4.90;;;;;;;13.07;52.26;96199.72;4998331;28;20120;-26
2023/03/04 09:06:02;;;;;;;11.55;4.82;;;;;;;12.97;52.50;96203.59;5002550;28;20029;-26
2023/03/04 09:08:28;;;;;;;10.13;4.85;;;;;;;13.15;52.04;96201.72;5002122;28;20113;-27
2023/03/04 09:10:54;;;;;;;16.17;7.30;;;;;;;13.18;52.40;96203.56;4997236;28;20026;-27
2023/03/04 09:13:21;;;;;;;16.10;7.97;;;;;;;13.29;52.27;96201.19;5001753;28;20016;-27
2023/03/04 09:15:48;;;;;;;12.02;6.20;;;;;;;13.27;52.13;96194.66;4995486;28;20058;-27
2023/03/04 09:18:15;;;;;;;16.55;6.50;;;;;;;13.46;51.71;96209.09;5003059;28;20541;-27
2023/03/04 09:20:40;;;;;;;9.10;5.53;;;;;;;13.32;53.03;96204.97;4994858;28;20026;-27
2023/03/04 09:23:08;;;;;;;13.20;5.72;;;;;;;13.48;52.62;96210.13;4996086;28;20442;-26
2023/03/04 09:25:34;;;;;;;11.32;4.95;;;;;;;13.30;53.15;96207.38;4995509;28;20076;-27
2023/03/04 09:27:59;;;;;;;9.15;4.78;;;;;;;13.55;51.96;96203.66;5007397;28;20026;-26
2023/03/04 09:30:25;;;;;;;11.18;4.80;;;;;;;13.52;53.06;96201.84;4995086;28;20466;-26
2023/03/04 09:32:50;;;;;;;7.40;4.28;;;;;;;13.61;52.57;96210.03;5000350;28;20095;-26
2023/03/04 09:35:16;;;;;;;8.82;4.60;;;;;;;13.57;52.77;96212.91;4997417;28;20030;-26
2023/03/04 09:37:41;;;;;;;9.90;4.75;;;;;;;13.64;52.54;96209.13;4995429;28;20033;-27
2023/03/04 09:40:15;;;;;;;11.45;5.13;;;;;;;13.66;52.69;96206.72;4995383;28;20030;-27
2023/03/04 09:42:51;;;;;;;7.82;4.15;;;;;;;13.70;52.34;96207.34;5002511;28;20489;-27
2023/03/04 09:45:20;;;;;;;8.38;4.47;;;;;;;13.71;52.86;96208.84;4995302;28;20038;-27
2023/03/04 09:47:49;;;;;;;7.55;4.18;;;;;;;13.89;52.41;96206.13;4995264;28;20025;-27
2023/03/04 09:50:14;;;;;;;7.65;4.43;;;;;;;13.90;52.11;96204.94;5001664;28;20027;-27
2023/03/04 09:52:51;;;;;;;8.63;3.92;;;;;;;13.79;52.36;96203.84;5003578;28;20021;-27
2023/03/04 09:55:45;;;;;;;6.63;3.60;;;;;;;13.79;52.36;96203.84;5003875;28;20029;-27
2023/03/04 09:58:32;;;;;;;8.73;3.72;;;;;;;13.83;52.35;96209.94;5005066;28;20037;-27
2023/03/04 10:01:07;;;;;;;8.23;3.70;;;;;;;13.78;52.92;96197.66;4995070;28;20097;-27
2023/03/04 10:03:47;;;;;;;6.55;3.63;;;;;;;13.74;53.14;96199.75;4995090;28;20022;-27
2023/03/04 10:06:19;;;;;;;6.78;3.70;;;;;;;13.82;52.67;96202.97;4995138;28;20105;-27
2023/03/04 10:08:56;;;;;;;9.88;4.70;;;;;;;13.90;52.62;96204.16;4995836;28;20041;-27
2023/03/04 10:11:34;;;;;;;6.88;3.85;;;;;;;13.86;52.89;96201.59;5002982;28;20389;-27
2023/03/04 10:14:18;;;;;;;10.40;3.95;;;;;;;13.96;52.69;96208.59;5000803;28;20022;-27
2023/03/04 10:16:55;;;;;;;10.55;4.72;;;;;;;13.89;52.77;96208.84;5002119;28;20455;-27
2023/03/04 10:19:24;;;;;;;9.55;5.10;;;;;;;14.04;52.38;96209.03;4998646;28;20034;-27
2023/03/04 10:21:50;;;;;;;9.10;5.53;;;;;;;13.92;52.61;96202.50;5005226;28;20093;-27
2023/03/04 10:24:27;;;;;;;13.02;6.72;;;;;;;13.94;52.38;96204.78;5005546;28;20026;-27
2023/03/04 10:27:03;;;;;;;7.72;5.10;;;;;;;13.86;52.51;96204.31;4998698;28;20426;-27
2023/03/04 10:29:31;;;;;;;8.77;5.10;;;;;;;14.22;51.82;96205.53;5001846;28;20076;-27
2023/03/04 10:31:57;;;;;;;8.38;4.68;;;;;;;14.12;52.16;96204.78;5002035;28;20118;-27
2023/03/04 10:34:22;;;;;;;9.85;4.88;;;;;;;13.99;52.06;96206.88;4998993;28;20486;-27
2023/03/04 10:36:48;;;;;;;11.55;4.78;;;;;;;14.03;52.55;96196.59;4998507;28;20023;-27
2023/03/04 10:39:35;;;;;;;11.20;4.00;;;;;;;14.13;52.03;96194.63;5007918;28;20053;-27
2023/03/04 10:42:03;;;;;;;10.02;4.28;;;;;;;13.98;52.09;96202.66;4998350;28;20105;-27
2023/03/04 10:44:30;;;;;;;6.18;3.47;;;;;;;13.83;52.67;96193.56;5005344;28;20026;-27
2023/03/04 10:46:57;;;;;;;11.23;4.47;;;;;;;13.96;52.51;96186.78;5004860;28;20045;-27
2023/03/04 10:49:24;;;;;;;8.80;4.30;;;;;;;14.21;51.77;96190.41;4998479;28;20022;-27
2023/03/04 10:52:01;;;;;;;7.95;4.30;;;;;;;14.21;51.41;96195.84;4997987;28;20014;-27
2023/03/04 10:54:45;;;;;;;7.57;3.78;;;;;;;14.04;51.79;96192.66;5005658;28;20029;-27
2023/03/04 10:57:18;;;;;;;7.10;3.63;;;;;;;14.19;51.94;96188.13;4998029;28;20027;-27
2023/03/04 10:59:52;;;;;;;7.85;3.53;;;;;;;14.31;51.42;96187.22;4998535;28;20073;-27
2023/03/04 11:02:27;;;;;;;7.05;4.38;;;;;;;14.16;51.03;96180.09;5002418;28;20497;-27
2023/03/04 11:05:16;;;;;;;6.78;4.53;;;;;;;14.42;50.88;96175.09;5000025;28;20025;-27
2023/03/04 11:07:51;;;;;;;6.65;4.03;;;;;;;14.20;51.66;96164.34;4994593;28;20154;-27
2023/03/04 11:10:17;;;;;;;8.65;3.80;;;;;;;14.15;51.49;96168.41;4997782;28;20018;-26
2023/03/04 11:13:07;;;;;;;9.05;4.60;;;;;;;14.25;51.39;96169.16;5004970;28;20356;-27
2023/03/04 11:15:46;;;;;;;7.30;3.97;;;;;;;14.28;51.20;96154.63;4996881;28;20038;-27
2023/03/04 11:18:12;;;;;;;8.30;4.40;;;;;;;14.12;51.41;96166.59;4998042;28;20029;-27
2023/03/04 11:20:47;;;;;;;10.05;5.43;;;;;;;14.24;51.42;96162.19;4997106;28;20026;-27
2023/03/04 11:23:23;;;;;;;10.75;5.00;;;;;;;14.32;51.33;96155.22;4998089;28;20533;-27
2023/03/04 11:25:57;;;;;;;8.32;4.13;;;;;;;14.38;50.93;96150.66;4997458;28;20057;-27
2023/03/04 11:29:12;;;;;;;8.98;4.82;;;;;;;14.31;51.17;96151.75;5011112;28;20831;-27
2023/03/04 11:32:08;;;;;;;7.57;4.47;;;;;;;14.40;51.13;96153.72;5003734;28;20065;-27
2023/03/04 11:34:49;;;;;;;9.73;4.93;;;;;;;14.36;50.96;96150.34;5003631;28;20505;-27